Аэропорт: Большое Савино. Пермь

ICAO: USPP

METAR:
2018/09/19 07:30
USPP 190730Z 36003MPS 9999 BKN008 12/11 Q0996 R21/290150 NOSIG RMK QFE737
METAR:
2018/09/19 06:24
TAF USPP 190458Z 1906/2006 34004G10MPS 6000 -RA OVC006 
      TEMPO 1906/1909 3100 -RA BR OVC003 
      BECMG 1909/1910 OVC011 
      BECMG 1912/1914 3100 -RA BR